• Join FlightAware (Why Join?)
  • Login
  • US Flag 
12:45AM EST


 

Airport Tracker/Info


-or-


 

Live Flight TrackerFlight Track Log ✈ DAL1981 ✈ 25-Jun-2013 ✈ KSMF - KMSP

Flight Track Log - Related Links

Times and Time Zones

All times are in EDT time to prevent confusion due to time zone crossing. See the DAL1981 flight status page for this flight to view local times or setup timezone preferences in your user account.

Time Position Orientation Groundspeed Altitude Reporting Facility
EDT Latitude Longitude Course Direction KTS MPH feet Rate Location/Type
03:52PM 38.6833 -121.5833 78° East 144 166 800  Level Northern Cal TRACON
03:53PM 38.6500 -121.5500 142° Southeast 182 209 1,900 1,560 Climbing Northern Cal TRACON
03:54PM 38.4980 -121.2471 80° East  Level FlightAware Approximate
03:54PM 38.6333 -121.4500 102° East 268 308 4,000  Level Northern Cal TRACON
03:55PM 38.5360 -121.0870 76° East  Level FlightAware Approximate
03:55PM 38.6333 -121.3500 90° East 304 350 6,800  Level Northern Cal TRACON
03:56PM 38.5656 -120.9234 78° East  Level FlightAware Approximate
03:57PM 38.5930 -120.7592 78° East  Level FlightAware Approximate
03:57PM 38.6450 -121.1225 86° East 319 367 12,100  Level Oakland Center
03:58PM 38.6542 -121.0039 84° East 336 387 13,900 1,560 Climbing Oakland Center
03:59PM 38.6656 -120.8683 84° East 379 436 15,400 1,380 Climbing Oakland Center
04:00PM 38.6775 -120.7225 84° East 410 472 16,800 1,560 Climbing Oakland Center
04:01PM 38.6894 -120.5711 84° East 427 491 18,600 1,500 Climbing Oakland Center
04:02PM 38.7014 -120.4144 84° East 441 507 19,900 1,440 Climbing Oakland Center
04:03PM 38.7169 -120.2197 84° East 459 528 21,600 960 Climbing Oakland Center
04:04PM 38.7483 -120.0539 76° East 478 550 21,900 480 Climbing Oakland Center
04:05PM 38.7839 -119.8781 75° East 505 581 22,700 960 Climbing Oakland Center
04:06PM 38.8306 -119.7047 71° East 515 593 23,900 900 Climbing Oakland Center
04:07PM 38.9453 -119.5986 36° Northeast 509 586 24,600 900 Climbing Oakland Center
04:08PM 39.0664 -119.4981 33° Northeast 515 593 25,800 1,020 Climbing Oakland Center
04:09PM 39.1836 -119.3958 34° Northeast 509 586 26,800 1,140 Climbing Oakland Center
04:10PM 39.3044 -119.2942 33° Northeast 513 590 28,200 1,020 Climbing Oakland Center
04:11PM 39.4250 -119.1906 34° Northeast 515 593 29,000 900 Climbing Oakland Center
04:12PM 39.5461 -119.0856 34° Northeast 517 595 30,100 1,140 Climbing Oakland Center
04:13PM 39.6672 -118.9800 34° Northeast 517 595 31,400 1,140 Climbing Oakland Center
04:14PM 39.7856 -118.8769 34° Northeast 508 585 32,500 780 Climbing Oakland Center
04:15PM 39.9019 -118.7739 34° Northeast 504 580 33,000 600 Climbing Oakland Center
04:16PM 40.0383 -118.6533 34° Northeast 494 568 33,800 720 Climbing Oakland Center
04:17PM 40.1319 -118.5164 48° Northeast 506 582 34,500 540 Climbing Oakland Center
04:18PM 40.1886 -118.3469 66° East 508 585 35,000 240 Climbing Oakland Center
04:19PM 40.2381 -118.1692 70° East 516 594 35,000  Level Oakland Center
04:20PM 40.2797 -118.0128 71° East 518 596 35,000  Level Salt Lake Center
04:21PM 40.3256 -117.8425 71° East 519 597 35,000  Level Salt Lake Center
04:22PM 40.3794 -117.6439 70° East 518 596 35,000  Level Salt Lake Center
04:23PM 40.4250 -117.4725 71° East 518 596 35,000  Level Salt Lake Center
04:24PM 40.4708 -117.3011 71° East 519 597 35,000  Level Salt Lake Center
04:25PM 40.5244 -117.0975 71° East 522 601 35,000  Level Salt Lake Center
04:26PM 40.5725 -116.9244 70° East 519 597 35,000  Level Salt Lake Center
04:27PM 40.6328 -116.7617 64° Northeast 511 588 35,000  Level Salt Lake Center
04:28PM 40.7044 -116.5753 63° Northeast 508 585 35,000  Level Salt Lake Center
04:29PM 40.7661 -116.4164 63° Northeast 506 582 35,000  Level Salt Lake Center
04:30PM 40.8367 -116.2319 63° Northeast 504 580 35,000  Level Salt Lake Center
04:31PM 40.8994 -116.0733 62° Northeast 508 585 35,000  Level Salt Lake Center
04:32PM 40.9714 -115.8858 63° Northeast 510 587 35,000  Level Salt Lake Center
04:33PM 41.0314 -115.7264 63° Northeast 508 585 35,000  Level Salt Lake Center
04:35PM 41.0911 -115.5642 64° Northeast 510 587 35,000  Level Salt Lake Center
04:36PM 41.1614 -115.3761 64° Northeast 511 588 35,000  Level Salt Lake Center
04:37PM 41.2222 -115.2133 64° Northeast 512 589 35,000  Level Salt Lake Center
04:38PM 41.2953 -115.0164 64° Northeast 530 610 35,000  Level Salt Lake Center
04:39PM 41.3581 -114.8469 64° Northeast 532 612 35,000  Level Salt Lake Center
04:40PM 41.4281 -114.6533 64° Northeast 528 608 35,000  Level Salt Lake Center
04:41PM 41.4917 -114.4767 64° Northeast 529 609 35,000  Level Salt Lake Center
04:42PM 41.5558 -114.2989 64° Northeast 532 612 35,000  Level Salt Lake Center
04:43PM 41.6192 -114.1231 64° Northeast 528 608 35,000  Level Salt Lake Center
04:44PM 41.6836 -113.9444 64° Northeast 531 611 35,000  Level Salt Lake Center
04:45PM 41.7458 -113.7658 65° Northeast 531 611 35,000  Level Salt Lake Center
04:46PM 41.8092 -113.5889 64° Northeast 526 605 35,000  Level Salt Lake Center
04:47PM 41.8842 -113.3756 65° Northeast 526 605 35,000  Level Salt Lake Center
04:48PM 41.9456 -113.1961 65° Northeast 528 608 35,000  Level Salt Lake Center
04:49PM 42.0078 -113.0161 65° Northeast 530 610 35,100  Climbing Salt Lake Center
04:50PM 42.0683 -112.8383 65° Northeast 525 604 35,000 -60 Descending Salt Lake Center
04:51PM 42.1300 -112.6564 65° Northeast 530 610 35,000 -360 Level Salt Lake Center
04:52PM 42.1903 -112.4769 66° East 527 606 34,300 -540 Descending Salt Lake Center
04:53PM 42.2500 -112.2950 66° East 529 609 34,000 -180 Descending Salt Lake Center
04:54PM 42.3094 -112.1119 66° East 530 610 34,000  Level Salt Lake Center
04:55PM 42.3803 -111.8919 66° East 531 611 34,000  Level Salt Lake Center
04:56PM 42.4400 -111.7081 66° East 532 612 34,000  Level Salt Lake Center
04:57PM 42.4994 -111.5233 66° East 533 613 34,000  Level Salt Lake Center
04:58PM 42.5575 -111.3400 67° East 531 611 34,100 300 Climbing Salt Lake Center
04:59PM 42.6167 -111.1578 66° East 530 610 34,700 420 Climbing Salt Lake Center
05:00PM 42.6736 -110.9694 68° East 535 616 35,000 120 Climbing Salt Lake Center
05:01PM 42.7339 -110.7772 67° East 541 623 35,000  Level Salt Lake Center
05:02PM 42.7975 -110.5736 67° East 530 610 35,000  Level Salt Lake Center
05:03PM 42.8492 -110.4031 68° East 518 596 35,000  Level Salt Lake Center
05:04PM 42.9114 -110.1964 68° East 526 605 35,000  Level Salt Lake Center
05:05PM 42.9647 -110.0175 68° East 532 612 35,000  Level Salt Lake Center
05:06PM 43.0206 -109.8344 67° East 532 612 35,100  Climbing Salt Lake Center
05:07PM 43.0828 -109.6236 68° East 533 613 35,000  Descending Salt Lake Center
05:08PM 43.1358 -109.4431 68° East 534 615 35,100  Climbing Salt Lake Center
05:09PM 43.1972 -109.2350 68° East 529 609 35,000 -60 Descending Salt Lake Center
05:11PM 43.2494 -109.0542 68° East 530 610 35,000  Level Salt Lake Center
05:12PM 43.3089 -108.8461 69° East 526 605 35,000  Level Salt Lake Center
05:13PM 43.3614 -108.6658 68° East 529 609 35,000  Level Salt Lake Center
05:14PM 43.4206 -108.4550 69° East 529 609 35,000  Level Salt Lake Center
05:15PM 43.4717 -108.2736 69° East 530 610 35,000  Level Salt Lake Center
05:16PM 43.5264 -108.0931 67° East 532 612 35,000  Level Salt Lake Center
05:17PM 43.5875 -107.8817 68° East 531 611 35,000  Level Salt Lake Center
05:18PM 43.6422 -107.7014 67° East 532 612 35,000  Level Salt Lake Center
05:19PM 43.7036 -107.4881 68° East 535 616 35,000  Level Salt Lake Center
05:20PM 43.7622 -107.2844 68° East 537 618 35,000  Level Salt Lake Center
05:21PM 43.8142 -107.1031 68° East 532 612 35,000  Level Salt Lake Center
05:22PM 43.8661 -106.9214 68° East 530 610 35,000  Level Salt Lake Center
05:23PM 43.9256 -106.7078 69° East 531 611 35,000  Level Salt Lake Center
05:24PM 43.9675 -106.5544 69° East 531 611 35,000  Level Denver Center
05:25PM 44.0258 -106.3392 69° East 532 612 35,100  Climbing Denver Center
05:26PM 44.0719 -106.1528 71° East 533 613 35,000 -60 Descending Denver Center
05:27PM 44.1272 -105.9342 71° East 534 615 35,000  Level Denver Center
05:28PM 44.1733 -105.7478 71° East 534 615 35,000  Level Denver Center
05:29PM 44.2186 -105.5603 71° East 533 613 35,000  Level Denver Center
05:30PM 44.2711 -105.3417 71° East 533 613 35,000  Level Denver Center
05:31PM 44.3169 -105.1528 71° East 534 615 35,000  Level Denver Center
05:32PM 44.3694 -104.9319 72° East 535 616 35,000  Level Denver Center
05:33PM 44.4136 -104.7431 72° East 535 616 35,000  Level Denver Center
05:34PM 44.4656 -104.5258 71° East 532 612 35,000  Level Denver Center
05:35PM 44.5094 -104.3372 72° East 531 611 35,100  Climbing Denver Center
05:36PM 44.5581 -104.1200 72° East 524 603 35,100 -60 Level Denver Center
05:37PM 44.6022 -103.9331 72° East 526 605 35,000 -60 Descending Denver Center
05:38PM 44.6511 -103.7128 73° East 529 609 35,000  Level Denver Center
05:39PM 44.6956 -103.5136 73° East 529 609 35,100  Climbing Denver Center
05:40PM 44.7392 -103.3186 72° East 526 605 35,000 -60 Descending Denver Center
05:41PM 44.7819 -103.1272 72° East 516 594 35,000  Level Denver Center
05:42PM 44.8156 -102.9744 73° East 513 590 35,000  Level Minneapolis Center
05:43PM 44.8572 -102.7828 73° East 513 590 35,100  Climbing Minneapolis Center
05:44PM 44.8967 -102.5917 74° East 511 588 35,000 -60 Descending Minneapolis Center
05:45PM 44.9458 -102.3597 73° East 513 590 35,000  Level Minneapolis Center
05:46PM 44.9867 -102.1683 73° East 511 588 35,000  Level Minneapolis Center
05:47PM 45.0258 -101.9767 74° East 510 587 35,000  Level Minneapolis Center
05:48PM 45.0369 -101.7806 85° East 509 586 35,000  Level Minneapolis Center
05:49PM 45.0261 -101.5822 94° East 509 586 35,100  Climbing Minneapolis Center
05:50PM 45.0133 -101.3867 95° East 504 580 35,000 -60 Descending Minneapolis Center
05:51PM 45.0003 -101.1531 94° East 500 575 35,000  Level Minneapolis Center
05:52PM 44.9875 -100.9594 95° East 497 572 35,000  Level Minneapolis Center
05:54PM 44.9750 -100.7653 95° East 497 572 35,000  Level Minneapolis Center
05:55PM 44.9622 -100.5744 95° East 495 570 35,000  Level Minneapolis Center
05:56PM 44.9506 -100.3914 95° East 484 557 35,000  Level Minneapolis Center
05:57PM 44.9344 -100.1717 96° East 476 548 35,000  Level Minneapolis Center
05:58PM 44.9197 -99.9883 96° East 480 552 35,100  Climbing Minneapolis Center
05:59PM 44.9083 -99.8042 95° East 485 558 35,100 -60 Level Minneapolis Center
06:00PM 44.8950 -99.6214 96° East 478 550 35,000 -60 Descending Minneapolis Center
06:01PM 44.8800 -99.4100 96° East 459 528 35,000  Level Minneapolis Center
06:02PM 44.8658 -99.2347 96° East 453 521 35,000  Level Minneapolis Center
06:03PM 44.8519 -99.0608 96° East 450 518 35,100  Climbing Minneapolis Center
06:04PM 44.8381 -98.8878 96° East 447 514 35,000 -60 Descending Minneapolis Center
06:05PM 44.8239 -98.7153 97° East 445 512 35,000  Level Minneapolis Center
06:06PM 44.8094 -98.5433 97° East 443 510 35,000  Level Minneapolis Center
06:07PM 44.7931 -98.3514 97° East 444 511 35,100  Climbing Minneapolis Center
06:08PM 44.7775 -98.1789 97° East 444 511 35,100 -60 Level Minneapolis Center
06:09PM 44.7633 -98.0089 97° East 440 506 35,000 -60 Descending Minneapolis Center
06:10PM 44.7456 -97.8053 97° East 439 505 35,000 -240 Level Minneapolis Center
06:11PM 44.7300 -97.6372 97° East 436 502 34,600 -660 Descending Minneapolis Center
06:12PM 44.7128 -97.4675 98° East 440 506 33,700 -960 Descending Minneapolis Center
06:13PM 44.6972 -97.2936 97° East 448 516 32,700 -1,020 Descending Minneapolis Center
06:14PM 44.6786 -97.1169 98° East 456 525 31,700 -840 Descending Minneapolis Center
06:15PM 44.6617 -96.9383 98° East 461 531 31,000 -360 Descending Minneapolis Center
06:16PM 44.6397 -96.7211 98° East 468 539 31,000  Level Minneapolis Center
06:17PM 44.6219 -96.5431 98° East 462 532 31,000  Level Minneapolis Center
06:18PM 44.6033 -96.3667 98° East 456 525 31,000  Level Minneapolis Center
06:19PM 44.5853 -96.1889 98° East 457 526 31,000  Level Minneapolis Center
06:20PM 44.5669 -96.0108 98° East 458 527 31,000  Level Minneapolis Center
06:21PM 44.5472 -95.8328 99° East 460 529 31,000  Level Minneapolis Center
06:22PM 44.5269 -95.6544 99° East 461 531 31,000  Level Minneapolis Center
06:24PM 44.5033 -95.4428 99° East 459 528 31,000 -1,440 Level Minneapolis Center
06:25PM 44.4781 -95.2292 99° East 463 533 27,800 -2,520 Descending Minneapolis Center
06:26PM 44.4844 -95.0572 87° East 449 517 25,300 -2,400 Descending Minneapolis Center
06:27PM 44.5233 -94.8983 71° East 434 499 22,900 -2,280 Descending Minneapolis Center
06:28PM 44.5597 -94.7439 72° East 424 488 20,600 -2,460 Descending Minneapolis Center
06:29PM 44.5947 -94.5853 73° East 410 472 17,900 -2,460 Descending Minneapolis Center
06:30PM 44.6303 -94.4342 72° East 405 466 15,500 -2,280 Descending Minneapolis Center
06:31PM 44.6636 -94.2903 72° East 383 441 13,200 -2,220 Descending Minneapolis Center
06:32PM 44.7006 -94.1239 73° East 371 427 11,000 -1,260 Descending Minneapolis Center
06:33PM 44.7292 -93.9983 72° East 332 382 10,600 -960 Descending Minneapolis Center
06:34PM 44.7561 -93.8872 71° East 303 349 9,100 -1,500 Descending Minneapolis Center
06:35PM 44.8175 -93.8089 42° Northeast 295 339 7,600 -1,020 Descending Minneapolis Center
06:36PM 44.8758 -93.7342 42° Northeast 284 327 7,000 -360 Descending Minneapolis Center
06:37PM 44.9336 -93.6581 43° Northeast 284 327 6,900 -540 Descending Minneapolis Center
06:38PM 44.9972 -93.5717 44° Northeast 262 302 5,900 -1,080 Descending Minneapolis Center
06:39PM 44.9919 -93.4794 95° East 241 277 4,700 -1,200 Descending Minneapolis Center
06:40PM 44.9617 -93.4050 120° Southeast 217 250 3,500 -1,200 Descending Minneapolis Center